sensor_id;sensor_type;location;lat;lon;timestamp;P1;durP1;ratioP1;P2;durP2;ratioP2
18322;SDS011;9287;49.456;11.064;2022-12-05T00:01:20;30.20;;;20.00;;
18322;SDS011;9287;49.456;11.064;2022-12-05T00:03:51;27.23;;;19.37;;
18322;SDS011;9287;49.456;11.064;2022-12-05T00:06:22;31.70;;;20.63;;
18322;SDS011;9287;49.456;11.064;2022-12-05T00:08:53;30.20;;;19.67;;
18322;SDS011;9287;49.456;11.064;2022-12-05T00:11:25;34.03;;;21.23;;
18322;SDS011;9287;49.456;11.064;2022-12-05T00:13:56;29.97;;;20.20;;
18322;SDS011;9287;49.456;11.064;2022-12-05T00:16:25;27.97;;;19.03;;
18322;SDS011;9287;49.456;11.064;2022-12-05T00:18:57;28.70;;;18.73;;
18322;SDS011;9287;49.456;11.064;2022-12-05T00:21:26;32.07;;;21.07;;
18322;SDS011;9287;49.456;11.064;2022-12-05T00:23:57;31.33;;;19.70;;
18322;SDS011;9287;49.456;11.064;2022-12-05T00:26:26;29.70;;;19.77;;
18322;SDS011;9287;49.456;11.064;2022-12-05T00:28:55;30.87;;;20.23;;
18322;SDS011;9287;49.456;11.064;2022-12-05T00:31:23;29.60;;;19.93;;
18322;SDS011;9287;49.456;11.064;2022-12-05T00:33:52;31.77;;;20.17;;
18322;SDS011;9287;49.456;11.064;2022-12-05T00:36:22;32.50;;;20.57;;
18322;SDS011;9287;49.456;11.064;2022-12-05T00:38:53;32.67;;;21.13;;
18322;SDS011;9287;49.456;11.064;2022-12-05T00:41:23;36.60;;;21.20;;
18322;SDS011;9287;49.456;11.064;2022-12-05T00:43:53;32.33;;;21.13;;
18322;SDS011;9287;49.456;11.064;2022-12-05T00:46:25;32.13;;;21.50;;
18322;SDS011;9287;49.456;11.064;2022-12-05T00:48:55;33.27;;;21.57;;
18322;SDS011;9287;49.456;11.064;2022-12-05T00:51:26;33.63;;;21.80;;
18322;SDS011;9287;49.456;11.064;2022-12-05T00:53:56;36.17;;;21.93;;
18322;SDS011;9287;49.456;11.064;2022-12-05T00:56:26;31.57;;;21.27;;
18322;SDS011;9287;49.456;11.064;2022-12-05T00:58:54;33.17;;;22.37;;
18322;SDS011;9287;49.456;11.064;2022-12-05T01:01:26;35.87;;;21.17;;
18322;SDS011;9287;49.456;11.064;2022-12-05T01:03:56;37.87;;;22.60;;
18322;SDS011;9287;49.456;11.064;2022-12-05T01:06:26;33.90;;;23.10;;
18322;SDS011;9287;49.456;11.064;2022-12-05T01:08:55;39.00;;;22.47;;
18322;SDS011;9287;49.456;11.064;2022-12-05T01:11:23;35.97;;;22.73;;
18322;SDS011;9287;49.456;11.064;2022-12-05T01:13:52;38.47;;;22.77;;
18322;SDS011;9287;49.456;11.064;2022-12-05T01:16:22;38.23;;;22.47;;
18322;SDS011;9287;49.456;11.064;2022-12-05T01:18:51;35.77;;;21.87;;
18322;SDS011;9287;49.456;11.064;2022-12-05T01:21:20;35.30;;;22.53;;
18322;SDS011;9287;49.456;11.064;2022-12-05T01:23:49;37.67;;;23.03;;
18322;SDS011;9287;49.456;11.064;2022-12-05T01:26:17;37.87;;;23.47;;
18322;SDS011;9287;49.456;11.064;2022-12-05T01:28:47;35.20;;;22.73;;
18322;SDS011;9287;49.456;11.064;2022-12-05T01:31:16;41.63;;;23.10;;
18322;SDS011;9287;49.456;11.064;2022-12-05T01:33:47;32.70;;;22.50;;
18322;SDS011;9287;49.456;11.064;2022-12-05T01:36:15;37.23;;;23.30;;
18322;SDS011;9287;49.456;11.064;2022-12-05T01:38:43;32.30;;;21.07;;
18322;SDS011;9287;49.456;11.064;2022-12-05T01:41:13;33.13;;;21.13;;
18322;SDS011;9287;49.456;11.064;2022-12-05T01:43:53;33.20;;;21.50;;
18322;SDS011;9287;49.456;11.064;2022-12-05T01:46:23;36.47;;;22.17;;
18322;SDS011;9287;49.456;11.064;2022-12-05T01:48:52;32.40;;;21.37;;
18322;SDS011;9287;49.456;11.064;2022-12-05T01:51:24;35.50;;;22.50;;
18322;SDS011;9287;49.456;11.064;2022-12-05T01:53:52;35.60;;;21.23;;
18322;SDS011;9287;49.456;11.064;2022-12-05T01:56:21;29.83;;;20.30;;
18322;SDS011;9287;49.456;11.064;2022-12-05T01:58:49;31.43;;;20.43;;
18322;SDS011;9287;49.456;11.064;2022-12-05T02:01:18;33.03;;;21.40;;
18322;SDS011;9287;49.456;11.064;2022-12-05T02:03:47;35.23;;;22.23;;
18322;SDS011;9287;49.456;11.064;2022-12-05T02:06:18;31.83;;;21.00;;
18322;SDS011;9287;49.456;11.064;2022-12-05T02:08:47;32.27;;;21.03;;
18322;SDS011;9287;49.456;11.064;2022-12-05T02:11:15;29.90;;;20.40;;
18322;SDS011;9287;49.456;11.064;2022-12-05T02:13:51;32.10;;;21.50;;
18322;SDS011;9287;49.456;11.064;2022-12-05T02:16:32;29.30;;;19.57;;
18322;SDS011;9287;49.456;11.064;2022-12-05T02:19:22;31.90;;;19.70;;
18322;SDS011;9287;49.456;11.064;2022-12-05T02:22:22;31.57;;;20.40;;
18322;SDS011;9287;49.456;11.064;2022-12-05T02:25:14;28.10;;;18.77;;
18322;SDS011;9287;49.456;11.064;2022-12-05T02:28:27;27.60;;;18.43;;
18322;SDS011;9287;49.456;11.064;2022-12-05T02:31:13;27.93;;;18.23;;
18322;SDS011;9287;49.456;11.064;2022-12-05T02:33:45;26.63;;;17.57;;
18322;SDS011;9287;49.456;11.064;2022-12-05T02:36:17;29.93;;;18.87;;
18322;SDS011;9287;49.456;11.064;2022-12-05T02:38:52;25.90;;;16.70;;
18322;SDS011;9287;49.456;11.064;2022-12-05T02:41:27;27.10;;;17.80;;
18322;SDS011;9287;49.456;11.064;2022-12-05T02:44:01;25.63;;;16.90;;
18322;SDS011;9287;49.456;11.064;2022-12-05T02:46:34;23.20;;;16.90;;
18322;SDS011;9287;49.456;11.064;2022-12-05T02:49:06;27.60;;;17.30;;
18322;SDS011;9287;49.456;11.064;2022-12-05T02:51:37;23.23;;;15.27;;
18322;SDS011;9287;49.456;11.064;2022-12-05T02:54:09;23.27;;;16.20;;
18322;SDS011;9287;49.456;11.064;2022-12-05T02:56:40;21.23;;;15.07;;
18322;SDS011;9287;49.456;11.064;2022-12-05T02:59:12;22.73;;;15.27;;
18322;SDS011;9287;49.456;11.064;2022-12-05T03:01:49;21.23;;;14.60;;
18322;SDS011;9287;49.456;11.064;2022-12-05T03:04:18;16.20;;;12.83;;
18322;SDS011;9287;49.456;11.064;2022-12-05T03:06:50;16.27;;;12.90;;
18322;SDS011;9287;49.456;11.064;2022-12-05T03:09:20;19.40;;;13.67;;
18322;SDS011;9287;49.456;11.064;2022-12-05T03:11:53;19.30;;;13.33;;
18322;SDS011;9287;49.456;11.064;2022-12-05T03:14:27;17.67;;;13.03;;
18322;SDS011;9287;49.456;11.064;2022-12-05T03:17:00;17.37;;;13.10;;
18322;SDS011;9287;49.456;11.064;2022-12-05T03:19:33;18.47;;;12.77;;
18322;SDS011;9287;49.456;11.064;2022-12-05T03:22:09;16.10;;;12.27;;
18322;SDS011;9287;49.456;11.064;2022-12-05T03:24:44;15.20;;;11.77;;
18322;SDS011;9287;49.456;11.064;2022-12-05T03:27:14;16.87;;;11.97;;
18322;SDS011;9287;49.456;11.064;2022-12-05T03:29:50;16.20;;;12.07;;
18322;SDS011;9287;49.456;11.064;2022-12-05T03:32:25;17.53;;;12.50;;
18322;SDS011;9287;49.456;11.064;2022-12-05T03:35:02;15.70;;;12.27;;
18322;SDS011;9287;49.456;11.064;2022-12-05T03:37:37;14.63;;;11.43;;
18322;SDS011;9287;49.456;11.064;2022-12-05T03:40:11;13.97;;;11.53;;
18322;SDS011;9287;49.456;11.064;2022-12-05T03:42:48;14.70;;;11.80;;
18322;SDS011;9287;49.456;11.064;2022-12-05T03:45:22;13.97;;;11.13;;
18322;SDS011;9287;49.456;11.064;2022-12-05T03:48:02;15.27;;;10.97;;
18322;SDS011;9287;49.456;11.064;2022-12-05T03:50:37;12.60;;;10.23;;
18322;SDS011;9287;49.456;11.064;2022-12-05T03:53:09;12.53;;;9.73;;
18322;SDS011;9287;49.456;11.064;2022-12-05T03:55:47;11.93;;;9.60;;
18322;SDS011;9287;49.456;11.064;2022-12-05T03:58:23;13.17;;;10.23;;
18322;SDS011;9287;49.456;11.064;2022-12-05T04:00:55;11.93;;;10.17;;
18322;SDS011;9287;49.456;11.064;2022-12-05T04:03:29;12.63;;;9.30;;
18322;SDS011;9287;49.456;11.064;2022-12-05T04:06:07;10.87;;;9.13;;
18322;SDS011;9287;49.456;11.064;2022-12-05T04:08:41;10.60;;;8.70;;
18322;SDS011;9287;49.456;11.064;2022-12-05T04:11:14;13.17;;;9.90;;
18322;SDS011;9287;49.456;11.064;2022-12-05T04:13:47;12.20;;;9.63;;
18322;SDS011;9287;49.456;11.064;2022-12-05T04:16:18;11.70;;;8.73;;
18322;SDS011;9287;49.456;11.064;2022-12-05T04:19:09;10.97;;;8.60;;
18322;SDS011;9287;49.456;11.064;2022-12-05T04:21:44;11.47;;;8.50;;
18322;SDS011;9287;49.456;11.064;2022-12-05T04:24:13;11.83;;;9.23;;
18322;SDS011;9287;49.456;11.064;2022-12-05T04:27:08;9.57;;;8.17;;
18322;SDS011;9287;49.456;11.064;2022-12-05T04:29:43;8.73;;;7.53;;
18322;SDS011;9287;49.456;11.064;2022-12-05T04:32:17;9.70;;;7.80;;
18322;SDS011;9287;49.456;11.064;2022-12-05T04:34:49;7.83;;;7.03;;
18322;SDS011;9287;49.456;11.064;2022-12-05T04:37:24;8.47;;;6.87;;
18322;SDS011;9287;49.456;11.064;2022-12-05T04:39:56;7.73;;;6.17;;
18322;SDS011;9287;49.456;11.064;2022-12-05T04:42:28;8.07;;;6.90;;
18322;SDS011;9287;49.456;11.064;2022-12-05T04:45:00;8.80;;;6.30;;
18322;SDS011;9287;49.456;11.064;2022-12-05T04:47:34;7.23;;;5.77;;
18322;SDS011;9287;49.456;11.064;2022-12-05T04:50:05;7.93;;;5.73;;
18322;SDS011;9287;49.456;11.064;2022-12-05T04:52:36;6.40;;;5.73;;
18322;SDS011;9287;49.456;11.064;2022-12-05T04:55:06;7.77;;;5.87;;
18322;SDS011;9287;49.456;11.064;2022-12-05T04:57:39;7.10;;;5.47;;
18322;SDS011;9287;49.456;11.064;2022-12-05T05:00:12;6.67;;;5.17;;
18322;SDS011;9287;49.456;11.064;2022-12-05T05:02:41;5.93;;;4.57;;
18322;SDS011;9287;49.456;11.064;2022-12-05T05:05:14;6.17;;;5.27;;
18322;SDS011;9287;49.456;11.064;2022-12-05T05:07:45;8.40;;;4.83;;
18322;SDS011;9287;49.456;11.064;2022-12-05T05:10:15;8.53;;;5.33;;
18322;SDS011;9287;49.456;11.064;2022-12-05T05:12:46;7.40;;;5.30;;
18322;SDS011;9287;49.456;11.064;2022-12-05T05:15:14;4.93;;;4.43;;
18322;SDS011;9287;49.456;11.064;2022-12-05T05:17:41;5.80;;;5.10;;
18322;SDS011;9287;49.456;11.064;2022-12-05T05:20:09;5.30;;;4.23;;
18322;SDS011;9287;49.456;11.064;2022-12-05T05:22:54;6.27;;;4.60;;
18322;SDS011;9287;49.456;11.064;2022-12-05T05:25:25;6.43;;;4.73;;
18322;SDS011;9287;49.456;11.064;2022-12-05T05:27:54;5.70;;;4.73;;
18322;SDS011;9287;49.456;11.064;2022-12-05T05:30:22;5.53;;;4.43;;
18322;SDS011;9287;49.456;11.064;2022-12-05T05:32:51;6.07;;;4.47;;
18322;SDS011;9287;49.456;11.064;2022-12-05T05:35:20;6.63;;;4.30;;
18322;SDS011;9287;49.456;11.064;2022-12-05T05:37:48;5.33;;;4.43;;
18322;SDS011;9287;49.456;11.064;2022-12-05T05:40:17;4.70;;;4.20;;
18322;SDS011;9287;49.456;11.064;2022-12-05T05:42:45;4.33;;;3.93;;
18322;SDS011;9287;49.456;11.064;2022-12-05T05:45:15;5.37;;;3.97;;
18322;SDS011;9287;49.456;11.064;2022-12-05T05:47:43;3.47;;;3.20;;
18322;SDS011;9287;49.456;11.064;2022-12-05T05:50:11;5.60;;;4.07;;
18322;SDS011;9287;49.456;11.064;2022-12-05T05:52:46;5.37;;;4.50;;
18322;SDS011;9287;49.456;11.064;2022-12-05T05:55:14;4.13;;;3.73;;
18322;SDS011;9287;49.456;11.064;2022-12-05T05:57:44;6.73;;;5.40;;
18322;SDS011;9287;49.456;11.064;2022-12-05T06:00:13;11.63;;;6.57;;
18322;SDS011;9287;49.456;11.064;2022-12-05T06:02:42;10.30;;;6.53;;
18322;SDS011;9287;49.456;11.064;2022-12-05T06:05:10;9.70;;;6.90;;
18322;SDS011;9287;49.456;11.064;2022-12-05T06:07:38;11.40;;;8.93;;
18322;SDS011;9287;49.456;11.064;2022-12-05T06:10:06;13.97;;;9.27;;
18322;SDS011;9287;49.456;11.064;2022-12-05T06:12:35;13.80;;;8.77;;
18322;SDS011;9287;49.456;11.064;2022-12-05T06:15:05;14.57;;;9.07;;
18322;SDS011;9287;49.456;11.064;2022-12-05T06:17:33;12.63;;;9.03;;
18322;SDS011;9287;49.456;11.064;2022-12-05T06:20:01;15.27;;;9.30;;
18322;SDS011;9287;49.456;11.064;2022-12-05T06:22:29;17.23;;;10.50;;
18322;SDS011;9287;49.456;11.064;2022-12-05T06:24:57;17.00;;;10.70;;
18322;SDS011;9287;49.456;11.064;2022-12-05T06:27:25;17.47;;;9.67;;
18322;SDS011;9287;49.456;11.064;2022-12-05T06:29:55;16.17;;;9.93;;
18322;SDS011;9287;49.456;11.064;2022-12-05T06:32:24;18.47;;;10.13;;
18322;SDS011;9287;49.456;11.064;2022-12-05T06:34:52;21.07;;;11.13;;
18322;SDS011;9287;49.456;11.064;2022-12-05T06:37:19;18.33;;;10.97;;
18322;SDS011;9287;49.456;11.064;2022-12-05T06:39:47;19.43;;;11.10;;
18322;SDS011;9287;49.456;11.064;2022-12-05T06:42:17;16.30;;;10.13;;
18322;SDS011;9287;49.456;11.064;2022-12-05T06:44:47;15.47;;;9.13;;
18322;SDS011;9287;49.456;11.064;2022-12-05T06:47:14;18.13;;;10.47;;
18322;SDS011;9287;49.456;11.064;2022-12-05T06:49:43;19.73;;;11.43;;
18322;SDS011;9287;49.456;11.064;2022-12-05T06:52:11;16.77;;;9.67;;
18322;SDS011;9287;49.456;11.064;2022-12-05T06:54:39;13.80;;;9.40;;
18322;SDS011;9287;49.456;11.064;2022-12-05T06:57:06;16.47;;;10.03;;
18322;SDS011;9287;49.456;11.064;2022-12-05T06:59:34;16.07;;;9.83;;
18322;SDS011;9287;49.456;11.064;2022-12-05T07:02:02;19.20;;;10.57;;
18322;SDS011;9287;49.456;11.064;2022-12-05T07:04:32;17.93;;;10.23;;
18322;SDS011;9287;49.456;11.064;2022-12-05T07:07:02;16.10;;;9.67;;
18322;SDS011;9287;49.456;11.064;2022-12-05T07:09:30;14.33;;;9.57;;
18322;SDS011;9287;49.456;11.064;2022-12-05T07:12:12;17.93;;;10.53;;
18322;SDS011;9287;49.456;11.064;2022-12-05T07:14:41;18.00;;;10.23;;
18322;SDS011;9287;49.456;11.064;2022-12-05T07:17:15;17.63;;;11.20;;
18322;SDS011;9287;49.456;11.064;2022-12-05T07:19:42;21.17;;;11.60;;
18322;SDS011;9287;49.456;11.064;2022-12-05T07:22:12;20.13;;;11.40;;
18322;SDS011;9287;49.456;11.064;2022-12-05T07:24:41;22.63;;;11.07;;
18322;SDS011;9287;49.456;11.064;2022-12-05T07:27:14;20.67;;;11.27;;
18322;SDS011;9287;49.456;11.064;2022-12-05T07:29:48;16.97;;;10.73;;
18322;SDS011;9287;49.456;11.064;2022-12-05T07:32:16;17.60;;;10.87;;
18322;SDS011;9287;49.456;11.064;2022-12-05T07:34:44;20.87;;;11.30;;
18322;SDS011;9287;49.456;11.064;2022-12-05T07:37:18;20.07;;;11.73;;
18322;SDS011;9287;49.456;11.064;2022-12-05T07:39:46;16.47;;;10.57;;
18322;SDS011;9287;49.456;11.064;2022-12-05T07:42:14;18.03;;;10.77;;
18322;SDS011;9287;49.456;11.064;2022-12-05T07:44:41;18.33;;;12.23;;
18322;SDS011;9287;49.456;11.064;2022-12-05T07:47:09;20.93;;;12.00;;
18322;SDS011;9287;49.456;11.064;2022-12-05T07:49:37;18.93;;;11.17;;
18322;SDS011;9287;49.456;11.064;2022-12-05T07:52:04;18.33;;;11.40;;
18322;SDS011;9287;49.456;11.064;2022-12-05T07:54:35;19.10;;;11.50;;
18322;SDS011;9287;49.456;11.064;2022-12-05T07:57:03;19.50;;;11.87;;
18322;SDS011;9287;49.456;11.064;2022-12-05T07:59:30;18.63;;;11.23;;
18322;SDS011;9287;49.456;11.064;2022-12-05T08:01:58;18.10;;;11.27;;
18322;SDS011;9287;49.456;11.064;2022-12-05T08:04:26;18.40;;;11.70;;
18322;SDS011;9287;49.456;11.064;2022-12-05T08:06:54;19.53;;;11.47;;
18322;SDS011;9287;49.456;11.064;2022-12-05T08:09:21;19.53;;;11.43;;
18322;SDS011;9287;49.456;11.064;2022-12-05T08:11:50;18.20;;;10.97;;
18322;SDS011;9287;49.456;11.064;2022-12-05T08:14:18;17.43;;;10.50;;
18322;SDS011;9287;49.456;11.064;2022-12-05T08:16:46;18.10;;;11.03;;
18322;SDS011;9287;49.456;11.064;2022-12-05T08:19:14;18.80;;;11.90;;
18322;SDS011;9287;49.456;11.064;2022-12-05T08:21:43;17.70;;;10.93;;
18322;SDS011;9287;49.456;11.064;2022-12-05T08:24:10;18.43;;;12.10;;
18322;SDS011;9287;49.456;11.064;2022-12-05T08:26:38;18.90;;;11.60;;
18322;SDS011;9287;49.456;11.064;2022-12-05T08:29:09;19.00;;;11.87;;
18322;SDS011;9287;49.456;11.064;2022-12-05T08:31:39;17.87;;;11.57;;
18322;SDS011;9287;49.456;11.064;2022-12-05T08:34:09;22.07;;;12.37;;
18322;SDS011;9287;49.456;11.064;2022-12-05T08:36:38;20.03;;;11.97;;
18322;SDS011;9287;49.456;11.064;2022-12-05T08:39:07;23.00;;;13.33;;
18322;SDS011;9287;49.456;11.064;2022-12-05T08:41:39;19.90;;;12.17;;
18322;SDS011;9287;49.456;11.064;2022-12-05T08:44:12;19.30;;;11.93;;
18322;SDS011;9287;49.456;11.064;2022-12-05T08:46:42;20.40;;;12.13;;
18322;SDS011;9287;49.456;11.064;2022-12-05T08:49:11;20.57;;;11.70;;
18322;SDS011;9287;49.456;11.064;2022-12-05T08:51:39;21.83;;;12.77;;
18322;SDS011;9287;49.456;11.064;2022-12-05T08:54:08;21.37;;;12.00;;
18322;SDS011;9287;49.456;11.064;2022-12-05T08:56:38;21.13;;;12.00;;
18322;SDS011;9287;49.456;11.064;2022-12-05T08:59:28;20.90;;;12.13;;
18322;SDS011;9287;49.456;11.064;2022-12-05T09:01:55;19.93;;;11.43;;
18322;SDS011;9287;49.456;11.064;2022-12-05T09:04:23;22.67;;;11.57;;
18322;SDS011;9287;49.456;11.064;2022-12-05T09:06:51;21.33;;;11.87;;
18322;SDS011;9287;49.456;11.064;2022-12-05T09:09:19;20.40;;;12.10;;
18322;SDS011;9287;49.456;11.064;2022-12-05T09:11:46;20.97;;;12.77;;
18322;SDS011;9287;49.456;11.064;2022-12-05T09:14:16;21.27;;;11.97;;
18322;SDS011;9287;49.456;11.064;2022-12-05T09:16:45;18.63;;;11.43;;
18322;SDS011;9287;49.456;11.064;2022-12-05T09:19:14;19.97;;;12.43;;
18322;SDS011;9287;49.456;11.064;2022-12-05T09:21:43;21.73;;;13.50;;
18322;SDS011;9287;49.456;11.064;2022-12-05T09:24:12;21.07;;;12.37;;
18322;SDS011;9287;49.456;11.064;2022-12-05T09:26:40;21.13;;;11.93;;
18322;SDS011;9287;49.456;11.064;2022-12-05T09:29:08;21.33;;;11.43;;
18322;SDS011;9287;49.456;11.064;2022-12-05T09:31:42;21.33;;;12.07;;
18322;SDS011;9287;49.456;11.064;2022-12-05T09:34:12;18.80;;;11.73;;
18322;SDS011;9287;49.456;11.064;2022-12-05T09:36:40;21.57;;;12.47;;
18322;SDS011;9287;49.456;11.064;2022-12-05T09:39:09;20.47;;;12.33;;
18322;SDS011;9287;49.456;11.064;2022-12-05T09:41:41;21.67;;;13.10;;
18322;SDS011;9287;49.456;11.064;2022-12-05T09:44:43;20.10;;;12.53;;
18322;SDS011;9287;49.456;11.064;2022-12-05T09:47:28;23.87;;;13.17;;
18322;SDS011;9287;49.456;11.064;2022-12-05T09:50:03;22.97;;;12.87;;
18322;SDS011;9287;49.456;11.064;2022-12-05T09:52:41;22.17;;;12.80;;
18322;SDS011;9287;49.456;11.064;2022-12-05T09:55:21;21.90;;;12.53;;
18322;SDS011;9287;49.456;11.064;2022-12-05T09:57:50;21.10;;;12.53;;
18322;SDS011;9287;49.456;11.064;2022-12-05T10:00:20;19.60;;;12.20;;
18322;SDS011;9287;49.456;11.064;2022-12-05T10:02:51;22.00;;;12.40;;
18322;SDS011;9287;49.456;11.064;2022-12-05T10:05:26;22.50;;;12.80;;
18322;SDS011;9287;49.456;11.064;2022-12-05T10:08:02;24.70;;;14.10;;
18322;SDS011;9287;49.456;11.064;2022-12-05T10:10:43;21.40;;;12.83;;
18322;SDS011;9287;49.456;11.064;2022-12-05T10:13:25;20.53;;;12.30;;
18322;SDS011;9287;49.456;11.064;2022-12-05T10:16:08;21.17;;;11.70;;
18322;SDS011;9287;49.456;11.064;2022-12-05T10:18:40;21.40;;;12.33;;
18322;SDS011;9287;49.456;11.064;2022-12-05T10:21:13;19.23;;;12.63;;
18322;SDS011;9287;49.456;11.064;2022-12-05T10:23:52;22.33;;;13.20;;
18322;SDS011;9287;49.456;11.064;2022-12-05T10:26:26;20.53;;;12.87;;
18322;SDS011;9287;49.456;11.064;2022-12-05T10:28:58;23.20;;;14.03;;
18322;SDS011;9287;49.456;11.064;2022-12-05T10:31:34;21.40;;;12.00;;
18322;SDS011;9287;49.456;11.064;2022-12-05T10:34:05;19.27;;;11.87;;
18322;SDS011;9287;49.456;11.064;2022-12-05T10:36:42;19.70;;;12.80;;
18322;SDS011;9287;49.456;11.064;2022-12-05T10:39:17;20.33;;;11.77;;
18322;SDS011;9287;49.456;11.064;2022-12-05T10:41:45;20.00;;;12.10;;
18322;SDS011;9287;49.456;11.064;2022-12-05T10:44:13;19.53;;;12.20;;
18322;SDS011;9287;49.456;11.064;2022-12-05T10:46:41;28.83;;;18.70;;
18322;SDS011;9287;49.456;11.064;2022-12-05T10:49:10;20.63;;;12.03;;
18322;SDS011;9287;49.456;11.064;2022-12-05T10:51:38;18.20;;;11.17;;
18322;SDS011;9287;49.456;11.064;2022-12-05T10:54:12;19.77;;;11.53;;
18322;SDS011;9287;49.456;11.064;2022-12-05T10:56:44;19.87;;;11.93;;
18322;SDS011;9287;49.456;11.064;2022-12-05T10:59:13;16.83;;;11.20;;
18322;SDS011;9287;49.456;11.064;2022-12-05T11:01:44;18.83;;;12.27;;
18322;SDS011;9287;49.456;11.064;2022-12-05T11:04:19;23.93;;;12.53;;
18322;SDS011;9287;49.456;11.064;2022-12-05T11:06:50;19.30;;;12.63;;
18322;SDS011;9287;49.456;11.064;2022-12-05T11:09:23;18.03;;;11.40;;
18322;SDS011;9287;49.456;11.064;2022-12-05T11:11:57;20.60;;;11.87;;
18322;SDS011;9287;49.456;11.064;2022-12-05T11:14:29;19.17;;;11.23;;
18322;SDS011;9287;49.456;11.064;2022-12-05T11:16:59;19.90;;;12.33;;
18322;SDS011;9287;49.456;11.064;2022-12-05T11:19:29;19.07;;;11.67;;
18322;SDS011;9287;49.456;11.064;2022-12-05T11:21:59;16.77;;;11.20;;
18322;SDS011;9287;49.456;11.064;2022-12-05T11:24:30;19.47;;;12.20;;
18322;SDS011;9287;49.456;11.064;2022-12-05T11:27:00;17.40;;;11.50;;
18322;SDS011;9287;49.456;11.064;2022-12-05T11:29:52;18.70;;;12.87;;
18322;SDS011;9287;49.456;11.064;2022-12-05T11:32:23;17.93;;;11.30;;
18322;SDS011;9287;49.456;11.064;2022-12-05T11:34:52;15.97;;;10.50;;
18322;SDS011;9287;49.456;11.064;2022-12-05T11:37:28;16.30;;;9.73;;
18322;SDS011;9287;49.456;11.064;2022-12-05T11:40:04;19.40;;;10.73;;
18322;SDS011;9287;49.456;11.064;2022-12-05T11:42:41;18.00;;;10.50;;
18322;SDS011;9287;49.456;11.064;2022-12-05T11:45:33;13.13;;;8.67;;
18322;SDS011;9287;49.456;11.064;2022-12-05T11:48:16;12.90;;;8.97;;
18322;SDS011;9287;49.456;11.064;2022-12-05T11:50:51;15.67;;;9.07;;
18322;SDS011;9287;49.456;11.064;2022-12-05T11:53:38;13.20;;;9.00;;
18322;SDS011;9287;49.456;11.064;2022-12-05T11:56:16;17.43;;;11.30;;
18322;SDS011;9287;49.456;11.064;2022-12-05T11:58:55;16.40;;;11.23;;
18322;SDS011;9287;49.456;11.064;2022-12-05T12:01:40;17.57;;;11.53;;
18322;SDS011;9287;49.456;11.064;2022-12-05T12:04:35;18.40;;;11.30;;
18322;SDS011;9287;49.456;11.064;2022-12-05T12:07:15;15.33;;;9.47;;
18322;SDS011;9287;49.456;11.064;2022-12-05T12:09:53;14.83;;;9.10;;
18322;SDS011;9287;49.456;11.064;2022-12-05T12:12:38;15.93;;;9.33;;
18322;SDS011;9287;49.456;11.064;2022-12-05T12:15:22;14.50;;;9.77;;
18322;SDS011;9287;49.456;11.064;2022-12-05T12:18:14;13.10;;;9.40;;
18322;SDS011;9287;49.456;11.064;2022-12-05T12:21:01;16.37;;;10.03;;
18322;SDS011;9287;49.456;11.064;2022-12-05T12:23:42;15.20;;;10.47;;
18322;SDS011;9287;49.456;11.064;2022-12-05T12:26:24;13.27;;;9.37;;
18322;SDS011;9287;49.456;11.064;2022-12-05T12:29:06;13.97;;;9.20;;
18322;SDS011;9287;49.456;11.064;2022-12-05T12:31:48;12.20;;;8.63;;
18322;SDS011;9287;49.456;11.064;2022-12-05T12:37:29;13.07;;;8.73;;
18322;SDS011;9287;49.456;11.064;2022-12-05T12:40:04;15.87;;;10.47;;
18322;SDS011;9287;49.456;11.064;2022-12-05T12:42:43;16.43;;;10.37;;
18322;SDS011;9287;49.456;11.064;2022-12-05T12:45:24;14.97;;;10.23;;
18322;SDS011;9287;49.456;11.064;2022-12-05T12:48:06;14.67;;;9.60;;
18322;SDS011;9287;49.456;11.064;2022-12-05T12:50:42;19.70;;;11.87;;
18322;SDS011;9287;49.456;11.064;2022-12-05T12:53:25;19.20;;;11.57;;
18322;SDS011;9287;49.456;11.064;2022-12-05T12:56:18;16.93;;;10.77;;
18322;SDS011;9287;49.456;11.064;2022-12-05T12:58:56;18.60;;;11.07;;
18322;SDS011;9287;49.456;11.064;2022-12-05T13:01:36;17.97;;;10.97;;
18322;SDS011;9287;49.456;11.064;2022-12-05T13:04:19;17.80;;;10.83;;
18322;SDS011;9287;49.456;11.064;2022-12-05T13:06:51;18.87;;;10.90;;
18322;SDS011;9287;49.456;11.064;2022-12-05T13:09:24;14.57;;;10.20;;
18322;SDS011;9287;49.456;11.064;2022-12-05T13:11:57;17.70;;;10.40;;
18322;SDS011;9287;49.456;11.064;2022-12-05T13:14:31;18.47;;;10.80;;
18322;SDS011;9287;49.456;11.064;2022-12-05T13:17:04;16.53;;;11.63;;
18322;SDS011;9287;49.456;11.064;2022-12-05T13:19:36;15.90;;;10.53;;
18322;SDS011;9287;49.456;11.064;2022-12-05T13:22:09;14.37;;;10.13;;
18322;SDS011;9287;49.456;11.064;2022-12-05T13:24:38;15.97;;;10.47;;
18322;SDS011;9287;49.456;11.064;2022-12-05T13:27:08;13.30;;;9.93;;
18322;SDS011;9287;49.456;11.064;2022-12-05T13:29:42;16.20;;;9.63;;
18322;SDS011;9287;49.456;11.064;2022-12-05T13:32:23;13.63;;;8.73;;
18322;SDS011;9287;49.456;11.064;2022-12-05T13:34:54;14.57;;;10.07;;
18322;SDS011;9287;49.456;11.064;2022-12-05T13:37:24;15.80;;;9.70;;
18322;SDS011;9287;49.456;11.064;2022-12-05T13:40:18;15.80;;;10.47;;
18322;SDS011;9287;49.456;11.064;2022-12-05T13:43:08;15.43;;;9.53;;
18322;SDS011;9287;49.456;11.064;2022-12-05T13:45:39;14.37;;;9.47;;
18322;SDS011;9287;49.456;11.064;2022-12-05T13:48:29;15.30;;;9.17;;
18322;SDS011;9287;49.456;11.064;2022-12-05T13:51:00;11.30;;;8.00;;
18322;SDS011;9287;49.456;11.064;2022-12-05T13:53:34;15.37;;;9.33;;
18322;SDS011;9287;49.456;11.064;2022-12-05T13:56:05;14.07;;;9.27;;
18322;SDS011;9287;49.456;11.064;2022-12-05T13:58:49;15.23;;;8.50;;
18322;SDS011;9287;49.456;11.064;2022-12-05T14:04:42;14.60;;;9.80;;
18322;SDS011;9287;49.456;11.064;2022-12-05T14:07:35;12.07;;;8.87;;
18322;SDS011;9287;49.456;11.064;2022-12-05T14:10:08;16.07;;;9.73;;
18322;SDS011;9287;49.456;11.064;2022-12-05T14:15:31;16.10;;;9.37;;
18322;SDS011;9287;49.456;11.064;2022-12-05T14:18:08;16.10;;;9.97;;
18322;SDS011;9287;49.456;11.064;2022-12-05T14:20:48;13.30;;;9.50;;
18322;SDS011;9287;49.456;11.064;2022-12-05T14:26:41;14.20;;;9.53;;
18322;SDS011;9287;49.456;11.064;2022-12-05T14:32:10;15.63;;;10.63;;
18322;SDS011;9287;49.456;11.064;2022-12-05T14:35:24;13.57;;;9.20;;
18322;SDS011;9287;49.456;11.064;2022-12-05T14:37:58;14.27;;;9.07;;
18322;SDS011;9287;49.456;11.064;2022-12-05T14:40:29;12.13;;;8.03;;
18322;SDS011;9287;49.456;11.064;2022-12-05T14:42:59;11.97;;;7.50;;
18322;SDS011;9287;49.456;11.064;2022-12-05T14:45:31;12.23;;;8.47;;
18322;SDS011;9287;49.456;11.064;2022-12-05T14:48:02;12.20;;;8.13;;
18322;SDS011;9287;49.456;11.064;2022-12-05T14:50:37;12.03;;;8.50;;
18322;SDS011;9287;49.456;11.064;2022-12-05T14:53:14;16.93;;;11.60;;
18322;SDS011;9287;49.456;11.064;2022-12-05T14:55:49;13.27;;;9.70;;
18322;SDS011;9287;49.456;11.064;2022-12-05T14:58:23;12.53;;;8.57;;
18322;SDS011;9287;49.456;11.064;2022-12-05T15:00:58;12.80;;;8.77;;
18322;SDS011;9287;49.456;11.064;2022-12-05T15:03:29;16.00;;;11.17;;
18322;SDS011;9287;49.456;11.064;2022-12-05T15:06:00;16.07;;;10.07;;
18322;SDS011;9287;49.456;11.064;2022-12-05T15:08:33;14.70;;;10.03;;
18322;SDS011;9287;49.456;11.064;2022-12-05T15:11:11;15.63;;;10.87;;
18322;SDS011;9287;49.456;11.064;2022-12-05T15:13:54;24.07;;;13.80;;
18322;SDS011;9287;49.456;11.064;2022-12-05T15:16:24;28.90;;;18.23;;